createdAt,value
2019-04-03T00:09:06.138Z,97535.00
2019-04-03T00:19:42.609Z,97518.00
2019-04-03T00:30:28.113Z,97515.00
2019-04-03T00:41:10.504Z,97533.00
2019-04-03T00:51:52.979Z,97552.00
2019-04-03T01:02:36.042Z,97581.00
2019-04-03T01:13:21.641Z,97627.00
2019-04-03T01:24:02.908Z,97651.00
2019-04-03T01:34:47.722Z,97629.00
2019-04-03T01:45:30.375Z,97627.00
2019-04-03T01:56:12.644Z,97632.00
2019-04-03T02:06:57.564Z,97633.00
2019-04-03T02:17:39.239Z,97641.00
2019-04-03T02:28:20.400Z,97615.00
2019-04-03T02:39:03.123Z,97629.00
2019-04-03T02:49:46.258Z,97651.00
2019-04-03T03:00:33.076Z,97643.00
2019-04-03T03:11:14.461Z,97655.00
2019-04-03T03:21:57.301Z,97660.00
2019-04-03T03:32:38.942Z,97687.00
2019-04-03T03:43:21.093Z,97708.00
2019-04-03T03:54:04.421Z,97750.00
2019-04-03T04:04:48.843Z,97722.00
2019-04-03T04:15:31.871Z,97707.00
2019-04-03T04:26:16.566Z,97712.00
2019-04-03T04:37:02.385Z,97699.00
2019-04-03T04:47:41.330Z,97728.00
2019-04-03T04:58:24.480Z,97709.00
2019-04-03T05:09:08.050Z,97716.00
2019-04-03T05:19:51.903Z,97717.00
2019-04-03T05:30:38.009Z,97730.00
2019-04-03T05:41:21.821Z,97724.00
2019-04-03T05:52:04.152Z,97738.00
2019-04-03T06:02:45.542Z,97755.00
2019-04-03T06:13:26.985Z,97821.00
2019-04-03T06:24:08.846Z,97875.00
2019-04-03T06:34:54.262Z,97890.00
2019-04-03T06:45:35.808Z,97905.00
2019-04-03T06:56:21.451Z,97889.00
2019-04-03T07:06:59.127Z,97879.00
2019-04-03T07:17:42.536Z,97885.00
2019-04-03T07:28:27.073Z,97858.00
2019-04-03T07:39:10.393Z,97882.00
2019-04-03T07:49:49.960Z,97901.00
2019-04-03T08:00:33.190Z,97893.00
2019-04-03T08:11:15.571Z,97852.00
2019-04-03T08:22:01.171Z,97844.00
2019-04-03T08:32:40.322Z,97871.00
2019-04-03T08:43:23.591Z,97883.00
2019-04-03T08:54:05.924Z,97901.00
2019-04-03T09:04:48.721Z,97883.00
2019-04-03T09:15:29.620Z,97918.00
2019-04-03T09:26:12.071Z,97912.00
2019-04-03T09:36:54.476Z,97880.00
2019-04-03T09:47:33.078Z,97867.00
2019-04-03T09:58:12.567Z,97869.00
2019-04-03T10:08:55.349Z,97855.00
2019-04-03T10:19:34.572Z,97815.00
2019-04-03T10:30:21.835Z,97746.00
2019-04-03T10:41:01.354Z,97732.00
2019-04-03T10:51:41.899Z,97663.00
2019-04-03T11:02:21.233Z,97564.00
2019-04-03T11:13:00.915Z,97482.00
2019-04-03T11:23:43.730Z,97451.00
2019-04-03T11:34:20.546Z,97493.00
2019-04-03T11:44:57.969Z,97436.00
2019-04-03T11:55:41.315Z,97405.00
2019-04-03T12:06:20.247Z,97432.00
2019-04-03T12:16:50.440Z,97424.00
2019-04-03T12:27:24.463Z,97454.00
2019-04-03T12:38:04.666Z,97430.00
2019-04-03T12:48:37.980Z,97423.00
2019-04-03T12:59:20.092Z,97395.00
2019-04-03T13:09:48.720Z,97383.00
2019-04-03T13:20:30.392Z,97327.00
2019-04-03T13:30:59.952Z,97349.00
2019-04-03T13:41:41.624Z,97282.00
2019-04-03T13:52:16.110Z,97306.00
2019-04-03T14:02:49.882Z,97309.00
2019-04-03T14:13:29.785Z,97307.00
2019-04-03T14:24:01.292Z,97325.00
2019-04-03T14:34:33.883Z,97339.00
2019-04-03T14:45:15.963Z,97360.00
2019-04-03T14:55:58.174Z,97402.00
2019-04-03T15:06:40.767Z,97446.00
2019-04-03T15:17:24.072Z,97464.00
2019-04-03T15:28:09.860Z,97493.00
2019-04-03T15:38:54.381Z,97537.00
2019-04-03T15:49:29.792Z,97535.00
2019-04-03T16:00:13.617Z,97550.00
2019-04-03T16:10:57.208Z,97531.00
2019-04-03T16:21:32.656Z,97539.00
2019-04-03T16:32:13.808Z,97560.00
2019-04-03T16:42:57.669Z,97595.00
2019-04-03T16:53:40.976Z,97634.00
2019-04-03T17:04:26.051Z,97682.00
2019-04-03T17:15:03.548Z,97688.00
2019-04-03T17:25:46.290Z,97680.00
2019-04-03T17:36:10.679Z,97724.00
2019-04-03T17:46:43.748Z,97764.00
2019-04-03T17:57:17.394Z,97763.00
2019-04-03T18:07:52.163Z,97794.00
2019-04-03T18:18:33.243Z,97795.00
2019-04-03T18:29:06.733Z,97838.00
2019-04-03T18:39:43.904Z,97848.00
2019-04-03T18:50:23.423Z,97859.00
2019-04-03T19:01:01.489Z,97872.00
2019-04-03T19:11:40.593Z,97882.00
2019-04-03T19:22:18.601Z,97914.00
2019-04-03T19:32:57.506Z,97924.00
2019-04-03T19:43:31.994Z,97946.00
2019-04-03T19:54:07.927Z,97955.00
2019-04-03T20:04:47.741Z,97936.00
2019-04-03T20:15:25.791Z,97938.00
2019-04-03T20:26:04.650Z,97949.00
2019-04-03T20:36:42.185Z,97971.00
2019-04-03T20:47:24.974Z,97982.00
2019-04-03T20:58:06.528Z,97955.00
2019-04-03T21:08:38.818Z,97951.00
2019-04-03T21:19:21.262Z,97940.00
2019-04-03T21:30:00.268Z,97970.00
2019-04-03T21:40:39.200Z,97984.00
2019-04-03T21:51:18.939Z,97979.00
2019-04-03T22:01:57.430Z,97999.00
2019-04-03T22:12:36.712Z,98002.00
2019-04-03T22:23:15.455Z,98009.00
2019-04-03T22:33:49.966Z,98003.00
2019-04-03T22:44:24.289Z,97994.00
2019-04-03T22:55:02.266Z,97992.00
2019-04-03T23:05:37.229Z,98003.00
2019-04-03T23:16:15.615Z,97974.00
2019-04-03T23:26:58.727Z,97982.00
2019-04-03T23:37:41.138Z,97947.00
2019-04-03T23:48:25.139Z,97963.00
2019-04-03T23:59:05.101Z,97947.00
